sensor_id;sensor_type;location;lat;lon;timestamp;pressure;altitude;pressure_sealevel;temperature;humidity
48517;BME280;34310;51.904;4.256;2023-04-03T00:00:56;103139.16;;;15.62;59.41
48517;BME280;34310;51.904;4.256;2023-04-03T00:03:24;103144.38;;;15.62;59.51
48517;BME280;34310;51.904;4.256;2023-04-03T00:05:51;103146.81;;;15.61;59.37
48517;BME280;34310;51.904;4.256;2023-04-03T00:08:19;103147.59;;;15.60;59.38
48517;BME280;34310;51.904;4.256;2023-04-03T00:10:47;103149.28;;;15.59;59.41
48517;BME280;34310;51.904;4.256;2023-04-03T00:13:15;103151.72;;;15.58;59.42
48517;BME280;34310;51.904;4.256;2023-04-03T00:15:42;103149.13;;;15.58;59.58
48517;BME280;34310;51.904;4.256;2023-04-03T00:18:09;103158.63;;;15.57;59.39
48517;BME280;34310;51.904;4.256;2023-04-03T00:20:37;103154.19;;;15.56;59.46
48517;BME280;34310;51.904;4.256;2023-04-03T00:23:05;103149.75;;;15.55;59.46
48517;BME280;34310;51.904;4.256;2023-04-03T00:25:33;103151.47;;;15.55;59.56
48517;BME280;34310;51.904;4.256;2023-04-03T00:28:00;103153.94;;;15.53;59.60
48517;BME280;34310;51.904;4.256;2023-04-03T00:30:28;103153.00;;;15.53;59.50
48517;BME280;34310;51.904;4.256;2023-04-03T00:32:55;103152.09;;;15.52;59.48
48517;BME280;34310;51.904;4.256;2023-04-03T00:35:24;103157.31;;;15.52;59.65
48517;BME280;34310;51.904;4.256;2023-04-03T00:37:52;103149.38;;;15.50;59.49
48517;BME280;34310;51.904;4.256;2023-04-03T00:40:23;103149.22;;;15.49;59.54
48517;BME280;34310;51.904;4.256;2023-04-03T00:42:56;103157.97;;;15.49;59.54
48517;BME280;34310;51.904;4.256;2023-04-03T00:45:38;103163.94;;;15.48;59.61
48517;BME280;34310;51.904;4.256;2023-04-03T00:48:10;103152.47;;;15.46;59.55
48517;BME280;34310;51.904;4.256;2023-04-03T00:50:41;103154.19;;;15.46;59.56
48517;BME280;34310;51.904;4.256;2023-04-03T00:53:16;103158.34;;;15.44;59.68
48517;BME280;34310;51.904;4.256;2023-04-03T00:55:46;103155.72;;;15.44;59.66
48517;BME280;34310;51.904;4.256;2023-04-03T00:58:16;103154.81;;;15.43;59.64
48517;BME280;34310;51.904;4.256;2023-04-03T01:00:48;103155.59;;;15.42;59.65
48517;BME280;34310;51.904;4.256;2023-04-03T01:03:18;103156.38;;;15.41;59.75
48517;BME280;34310;51.904;4.256;2023-04-03T01:05:46;103167.56;;;15.40;59.79
48517;BME280;34310;51.904;4.256;2023-04-03T01:08:13;103166.66;;;15.40;59.63
48517;BME280;34310;51.904;4.256;2023-04-03T01:10:41;103165.75;;;15.39;59.58
48517;BME280;34310;51.904;4.256;2023-04-03T01:13:39;103170.81;;;15.38;59.71
48517;BME280;34310;51.904;4.256;2023-04-03T01:16:07;103170.81;;;15.38;59.76
48517;BME280;34310;51.904;4.256;2023-04-03T01:18:37;103173.28;;;15.36;59.66
48517;BME280;34310;51.904;4.256;2023-04-03T01:26:35;103169.50;;;15.33;59.67
48517;BME280;34310;51.904;4.256;2023-04-03T01:29:03;103172.09;;;15.33;59.86
48517;BME280;34310;51.904;4.256;2023-04-03T01:34:12;103170.25;;;15.32;59.72
48517;BME280;34310;51.904;4.256;2023-04-03T01:36:40;103164.91;;;15.30;59.69
48517;BME280;34310;51.904;4.256;2023-04-03T01:39:08;103174.41;;;15.30;59.87
48517;BME280;34310;51.904;4.256;2023-04-03T01:41:35;103175.19;;;15.29;59.71
48517;BME280;34310;51.904;4.256;2023-04-03T01:44:03;103175.06;;;15.27;59.68
48517;BME280;34310;51.904;4.256;2023-04-03T01:46:31;103179.34;;;15.27;59.74
48517;BME280;34310;51.904;4.256;2023-04-03T01:48:58;103172.31;;;15.26;59.72
48517;BME280;34310;51.904;4.256;2023-04-03T01:51:25;103168.81;;;15.25;59.76
48517;BME280;34310;51.904;4.256;2023-04-03T01:53:53;103174.78;;;15.24;59.78
48517;BME280;34310;51.904;4.256;2023-04-03T01:56:20;103169.56;;;15.24;59.88
48517;BME280;34310;51.904;4.256;2023-04-03T01:58:48;103172.19;;;15.24;59.82
48517;BME280;34310;51.904;4.256;2023-04-03T02:01:15;103169.31;;;15.21;59.80
48517;BME280;34310;51.904;4.256;2023-04-03T02:03:43;103171.13;;;15.22;59.77
48517;BME280;34310;51.904;4.256;2023-04-03T02:06:10;103167.50;;;15.20;59.80
48517;BME280;34310;51.904;4.256;2023-04-03T02:08:39;103175.28;;;15.20;59.84
48517;BME280;34310;51.904;4.256;2023-04-03T02:11:07;103179.59;;;15.19;59.74
48517;BME280;34310;51.904;4.256;2023-04-03T02:13:34;103169.81;;;15.17;59.95
48517;BME280;34310;51.904;4.256;2023-04-03T02:16:09;103180.22;;;15.17;59.93
48517;BME280;34310;51.904;4.256;2023-04-03T02:18:37;103184.53;;;15.16;59.91
48517;BME280;34310;51.904;4.256;2023-04-03T02:21:05;103188.94;;;15.17;60.01
48517;BME280;34310;51.904;4.256;2023-04-03T02:23:32;103186.22;;;15.16;60.16
48517;BME280;34310;51.904;4.256;2023-04-03T02:26:05;103190.50;;;15.15;60.37
48517;BME280;34310;51.904;4.256;2023-04-03T02:28:33;103191.41;;;15.16;60.21
48517;BME280;34310;51.904;4.256;2023-04-03T02:31:01;103185.28;;;15.15;60.18
48517;BME280;34310;51.904;4.256;2023-04-03T02:33:30;103194.00;;;15.16;60.27
48517;BME280;34310;51.904;4.256;2023-04-03T02:35:58;103193.88;;;15.14;60.11
48517;BME280;34310;51.904;4.256;2023-04-03T02:38:25;103197.38;;;15.15;60.16
48517;BME280;34310;51.904;4.256;2023-04-03T02:40:53;103195.69;;;15.15;60.13
48517;BME280;34310;51.904;4.256;2023-04-03T02:43:20;103203.38;;;15.14;60.13
48517;BME280;34310;51.904;4.256;2023-04-03T02:45:47;103198.16;;;15.14;60.14
48517;BME280;34310;51.904;4.256;2023-04-03T02:48:15;103201.69;;;15.14;60.12
48517;BME280;34310;51.904;4.256;2023-04-03T02:50:43;103203.38;;;15.14;60.28
48517;BME280;34310;51.904;4.256;2023-04-03T02:53:11;103198.16;;;15.14;60.23
48517;BME280;34310;51.904;4.256;2023-04-03T02:55:38;103193.75;;;15.13;60.21
48517;BME280;34310;51.904;4.256;2023-04-03T02:58:05;103191.13;;;15.13;60.10
48517;BME280;34310;51.904;4.256;2023-04-03T03:00:36;103195.44;;;15.12;60.08
48517;BME280;34310;51.904;4.256;2023-04-03T03:03:04;103194.53;;;15.12;60.12
48517;BME280;34310;51.904;4.256;2023-04-03T03:05:31;103199.72;;;15.12;60.24
48517;BME280;34310;51.904;4.256;2023-04-03T03:07:59;103202.19;;;15.10;60.18
48517;BME280;34310;51.904;4.256;2023-04-03T03:10:26;103199.59;;;15.10;60.15
48517;BME280;34310;51.904;4.256;2023-04-03T03:12:54;103199.44;;;15.09;60.11
48517;BME280;34310;51.904;4.256;2023-04-03T03:15:21;103200.22;;;15.08;60.05
48517;BME280;34310;51.904;4.256;2023-04-03T03:17:48;103205.44;;;15.08;60.13
48517;BME280;34310;51.904;4.256;2023-04-03T03:20:16;103199.31;;;15.07;60.35
48517;BME280;34310;51.904;4.256;2023-04-03T03:22:43;103208.81;;;15.07;60.41
48517;BME280;34310;51.904;4.256;2023-04-03T03:25:11;103205.44;;;15.08;60.25
48517;BME280;34310;51.904;4.256;2023-04-03T03:27:38;103207.25;;;15.09;60.36
48517;BME280;34310;51.904;4.256;2023-04-03T03:30:06;103201.28;;;15.10;60.38
48517;BME280;34310;51.904;4.256;2023-04-03T03:32:33;103215.19;;;15.10;60.47
48517;BME280;34310;51.904;4.256;2023-04-03T03:35:01;103219.50;;;15.10;60.46
48517;BME280;34310;51.904;4.256;2023-04-03T03:37:28;103218.72;;;15.11;60.55
48517;BME280;34310;51.904;4.256;2023-04-03T03:39:56;103219.50;;;15.10;60.55
48517;BME280;34310;51.904;4.256;2023-04-03T03:42:24;103223.91;;;15.11;60.55
48517;BME280;34310;51.904;4.256;2023-04-03T03:44:51;103214.44;;;15.11;60.50
48517;BME280;34310;51.904;4.256;2023-04-03T03:47:19;103221.31;;;15.11;60.58
48517;BME280;34310;51.904;4.256;2023-04-03T03:49:46;103220.41;;;15.10;60.56
48517;BME280;34310;51.904;4.256;2023-04-03T03:52:13;103214.28;;;15.10;60.50
48517;BME280;34310;51.904;4.256;2023-04-03T03:54:41;103211.53;;;15.08;60.45
48517;BME280;34310;51.904;4.256;2023-04-03T03:57:08;103219.50;;;15.10;60.44
48517;BME280;34310;51.904;4.256;2023-04-03T03:59:35;103223.78;;;15.09;60.44
48517;BME280;34310;51.904;4.256;2023-04-03T04:02:03;103223.78;;;15.09;60.40
48517;BME280;34310;51.904;4.256;2023-04-03T04:04:30;103224.56;;;15.08;60.44
48517;BME280;34310;51.904;4.256;2023-04-03T04:06:58;103231.72;;;15.11;60.42
48517;BME280;34310;51.904;4.256;2023-04-03T04:09:27;103227.28;;;15.10;60.26
48517;BME280;34310;51.904;4.256;2023-04-03T04:11:54;103222.09;;;15.10;60.41
48517;BME280;34310;51.904;4.256;2023-04-03T04:14:22;103228.22;;;15.10;60.41
48517;BME280;34310;51.904;4.256;2023-04-03T04:16:49;103218.56;;;15.09;60.26
48517;BME280;34310;51.904;4.256;2023-04-03T04:19:16;103222.09;;;15.10;60.36
48517;BME280;34310;51.904;4.256;2023-04-03T04:21:44;103223.66;;;15.08;60.24
48517;BME280;34310;51.904;4.256;2023-04-03T04:24:11;103224.69;;;15.10;60.35
48517;BME280;34310;51.904;4.256;2023-04-03T04:26:38;103224.56;;;15.08;60.20
48517;BME280;34310;51.904;4.256;2023-04-03T04:29:06;103228.06;;;15.09;60.28
48517;BME280;34310;51.904;4.256;2023-04-03T04:31:33;103226.25;;;15.08;60.22
48517;BME280;34310;51.904;4.256;2023-04-03T04:34:01;103231.59;;;15.09;60.31
48517;BME280;34310;51.904;4.256;2023-04-03T04:36:28;103234.06;;;15.08;60.22
48517;BME280;34310;51.904;4.256;2023-04-03T04:38:55;103230.53;;;15.07;60.22
48517;BME280;34310;51.904;4.256;2023-04-03T04:41:24;103231.31;;;15.06;60.10
48517;BME280;34310;51.904;4.256;2023-04-03T04:43:52;103232.22;;;15.07;60.21
48517;BME280;34310;51.904;4.256;2023-04-03T04:46:19;103235.59;;;15.06;60.15
48517;BME280;34310;51.904;4.256;2023-04-03T04:48:47;103233.00;;;15.06;60.22
48517;BME280;34310;51.904;4.256;2023-04-03T04:51:15;103233.78;;;15.05;60.08
48517;BME280;34310;51.904;4.256;2023-04-03T04:53:42;103235.47;;;15.04;60.17
48517;BME280;34310;51.904;4.256;2023-04-03T04:56:10;103244.19;;;15.05;60.20
48517;BME280;34310;51.904;4.256;2023-04-03T04:58:37;103245.88;;;15.04;60.06
48517;BME280;34310;51.904;4.256;2023-04-03T05:01:07;103240.50;;;15.03;60.24
48517;BME280;34310;51.904;4.256;2023-04-03T05:03:35;103237.91;;;15.03;60.26
48517;BME280;34310;51.904;4.256;2023-04-03T05:06:03;103239.75;;;15.04;60.33
48517;BME280;34310;51.904;4.256;2023-04-03T05:08:30;103242.34;;;15.04;60.20
48517;BME280;34310;51.904;4.256;2023-04-03T05:10:58;103241.59;;;15.05;60.21
48517;BME280;34310;51.904;4.256;2023-04-03T05:13:25;103246.78;;;15.05;60.35
48517;BME280;34310;51.904;4.256;2023-04-03T05:15:53;103240.03;;;15.07;60.18
48517;BME280;34310;51.904;4.256;2023-04-03T05:18:20;103246.91;;;15.06;60.26
48517;BME280;34310;51.904;4.256;2023-04-03T05:20:49;103248.75;;;15.07;60.21
48517;BME280;34310;51.904;4.256;2023-04-03T05:23:17;103249.66;;;15.08;60.42
48517;BME280;34310;51.904;4.256;2023-04-03T05:25:45;103240.16;;;15.08;60.39
48517;BME280;34310;51.904;4.256;2023-04-03T05:28:14;103241.09;;;15.09;60.40
48517;BME280;34310;51.904;4.256;2023-04-03T05:30:41;103246.41;;;15.10;60.27
48517;BME280;34310;51.904;4.256;2023-04-03T05:33:09;103245.50;;;15.10;60.31
48517;BME280;34310;51.904;4.256;2023-04-03T05:35:37;103250.72;;;15.10;60.41
48517;BME280;34310;51.904;4.256;2023-04-03T05:38:08;103253.31;;;15.10;60.41
48517;BME280;34310;51.904;4.256;2023-04-03T05:40:36;103256.06;;;15.11;60.49
48517;BME280;34310;51.904;4.256;2023-04-03T05:43:04;103252.53;;;15.11;60.49
48517;BME280;34310;51.904;4.256;2023-04-03T05:45:31;103258.53;;;15.10;60.35
48517;BME280;34310;51.904;4.256;2023-04-03T05:47:59;103254.22;;;15.10;60.58
48517;BME280;34310;51.904;4.256;2023-04-03T05:50:27;103256.69;;;15.09;60.39
48517;BME280;34310;51.904;4.256;2023-04-03T05:52:57;103258.38;;;15.08;60.48
48517;BME280;34310;51.904;4.256;2023-04-03T05:55:25;103265.41;;;15.09;60.44
48517;BME280;34310;51.904;4.256;2023-04-03T05:57:53;103269.69;;;15.09;60.50
48517;BME280;34310;51.904;4.256;2023-04-03T06:00:20;103270.63;;;15.09;60.58
48517;BME280;34310;51.904;4.256;2023-04-03T06:02:48;103279.34;;;15.10;60.50
48517;BME280;34310;51.904;4.256;2023-04-03T06:05:15;103278.41;;;15.09;60.40
48517;BME280;34310;51.904;4.256;2023-04-03T06:07:43;103275.69;;;15.08;60.42
48517;BME280;34310;51.904;4.256;2023-04-03T06:10:12;103284.41;;;15.08;60.35
48517;BME280;34310;51.904;4.256;2023-04-03T06:12:39;103274.00;;;15.08;60.40
48517;BME280;34310;51.904;4.256;2023-04-03T06:15:07;103281.78;;;15.08;60.41
48517;BME280;34310;51.904;4.256;2023-04-03T06:17:37;103292.34;;;15.10;60.43
48517;BME280;34310;51.904;4.256;2023-04-03T06:20:05;103294.94;;;15.10;60.39
48517;BME280;34310;51.904;4.256;2023-04-03T06:22:33;103289.75;;;15.10;60.31
48517;BME280;34310;51.904;4.256;2023-04-03T06:25:00;103291.44;;;15.09;60.50
48517;BME280;34310;51.904;4.256;2023-04-03T06:27:27;103288.81;;;15.09;60.32
48517;BME280;34310;51.904;4.256;2023-04-03T06:29:55;103295.84;;;15.10;60.41
48517;BME280;34310;51.904;4.256;2023-04-03T06:32:22;103301.97;;;15.11;60.28
48517;BME280;34310;51.904;4.256;2023-04-03T06:34:50;103299.38;;;15.11;60.39
48517;BME280;34310;51.904;4.256;2023-04-03T06:37:20;103292.47;;;15.11;60.40
48517;BME280;34310;51.904;4.256;2023-04-03T06:39:48;103299.38;;;15.11;60.46
48517;BME280;34310;51.904;4.256;2023-04-03T06:42:15;103301.06;;;15.10;60.26
48517;BME280;34310;51.904;4.256;2023-04-03T06:44:43;103289.75;;;15.10;60.19
48517;BME280;34310;51.904;4.256;2023-04-03T06:47:14;103290.66;;;15.10;60.35
48517;BME280;34310;51.904;4.256;2023-04-03T06:49:42;103293.25;;;15.10;60.13
48517;BME280;34310;51.904;4.256;2023-04-03T06:52:10;103290.66;;;15.10;60.22
48517;BME280;34310;51.904;4.256;2023-04-03T06:54:39;103292.34;;;15.10;60.25
48517;BME280;34310;51.904;4.256;2023-04-03T06:57:07;103294.94;;;15.10;60.22
48517;BME280;34310;51.904;4.256;2023-04-03T06:59:35;103297.56;;;15.10;60.19
48517;BME280;34310;51.904;4.256;2023-04-03T07:02:04;103300.16;;;15.10;60.18
48517;BME280;34310;51.904;4.256;2023-04-03T07:04:31;103298.31;;;15.09;60.15
48517;BME280;34310;51.904;4.256;2023-04-03T07:06:59;103300.91;;;15.09;60.32
48517;BME280;34310;51.904;4.256;2023-04-03T07:09:26;103301.69;;;15.08;60.19
48517;BME280;34310;51.904;4.256;2023-04-03T07:11:53;103301.84;;;15.09;60.27
48517;BME280;34310;51.904;4.256;2023-04-03T07:14:21;103301.69;;;15.08;60.26
48517;BME280;34310;51.904;4.256;2023-04-03T07:16:48;103297.28;;;15.07;60.16
48517;BME280;34310;51.904;4.256;2023-04-03T07:19:16;103291.16;;;15.06;60.30
48517;BME280;34310;51.904;4.256;2023-04-03T07:21:45;103295.44;;;15.06;60.30
48517;BME280;34310;51.904;4.256;2023-04-03T07:24:13;103304.16;;;15.06;60.19
48517;BME280;34310;51.904;4.256;2023-04-03T07:26:42;103311.06;;;15.06;60.17
48517;BME280;34310;51.904;4.256;2023-04-03T07:29:12;103314.56;;;15.06;60.28
48517;BME280;34310;51.904;4.256;2023-04-03T07:31:39;103310.13;;;15.05;60.16
48517;BME280;34310;51.904;4.256;2023-04-03T07:34:08;103316.13;;;15.04;60.22
48517;BME280;34310;51.904;4.256;2023-04-03T07:36:36;103319.63;;;15.05;60.16
48517;BME280;34310;51.904;4.256;2023-04-03T07:39:03;103329.13;;;15.04;60.27
48517;BME280;34310;51.904;4.256;2023-04-03T07:41:30;103325.63;;;15.04;60.08
48517;BME280;34310;51.904;4.256;2023-04-03T07:43:58;103331.56;;;15.03;60.31
48517;BME280;34310;51.904;4.256;2023-04-03T07:46:25;103331.56;;;15.03;60.17
48517;BME280;34310;51.904;4.256;2023-04-03T07:48:56;103341.22;;;15.04;60.24
48517;BME280;34310;51.904;4.256;2023-04-03T07:51:24;103335.06;;;15.03;60.14
48517;BME280;34310;51.904;4.256;2023-04-03T07:53:53;103332.31;;;15.02;60.32
48517;BME280;34310;51.904;4.256;2023-04-03T07:56:20;103333.25;;;15.02;60.25
48517;BME280;34310;51.904;4.256;2023-04-03T07:58:48;103342.72;;;15.02;60.26
48517;BME280;34310;51.904;4.256;2023-04-03T08:01:15;103340.13;;;15.02;60.22
48517;BME280;34310;51.904;4.256;2023-04-03T08:03:42;103350.53;;;15.02;60.30
48517;BME280;34310;51.904;4.256;2023-04-03T08:06:10;103344.41;;;15.01;60.10
48517;BME280;34310;51.904;4.256;2023-04-03T08:08:42;103347.03;;;15.01;60.34
48517;BME280;34310;51.904;4.256;2023-04-03T08:11:10;103346.13;;;15.01;60.27
48517;BME280;34310;51.904;4.256;2023-04-03T08:13:38;103346.13;;;15.01;60.16
48517;BME280;34310;51.904;4.256;2023-04-03T08:16:10;103359.13;;;15.01;60.25
48517;BME280;34310;51.904;4.256;2023-04-03T08:18:38;103362.63;;;15.01;60.22
48517;BME280;34310;51.904;4.256;2023-04-03T08:21:10;103357.28;;;15.00;60.30
48517;BME280;34310;51.904;4.256;2023-04-03T08:23:38;103353.00;;;15.00;60.17
48517;BME280;34310;51.904;4.256;2023-04-03T08:26:14;103356.50;;;15.01;60.27
48517;BME280;34310;51.904;4.256;2023-04-03T08:28:42;103360.81;;;15.00;60.28
48517;BME280;34310;51.904;4.256;2023-04-03T08:31:12;103365.09;;;15.00;60.27
48517;BME280;34310;51.904;4.256;2023-04-03T08:33:41;103356.50;;;15.01;60.24
48517;BME280;34310;51.904;4.256;2023-04-03T08:36:17;103350.41;;;15.00;60.31
48517;BME280;34310;51.904;4.256;2023-04-03T08:38:45;103359.88;;;15.00;60.19
48517;BME280;34310;51.904;4.256;2023-04-03T08:46:21;103365.88;;;14.99;60.25
48517;BME280;34310;51.904;4.256;2023-04-03T08:48:51;103364.19;;;14.99;60.32
48517;BME280;34310;51.904;4.256;2023-04-03T08:51:20;103368.47;;;14.99;60.29
48517;BME280;34310;51.904;4.256;2023-04-03T08:54:06;103367.69;;;15.00;60.35
48517;BME280;34310;51.904;4.256;2023-04-03T08:56:39;103363.25;;;14.99;60.27
48517;BME280;34310;51.904;4.256;2023-04-03T08:59:13;103358.22;;;15.00;60.25
48517;BME280;34310;51.904;4.256;2023-04-03T09:01:46;103362.50;;;15.00;60.42
48517;BME280;34310;51.904;4.256;2023-04-03T09:04:16;103364.94;;;14.98;60.42
48517;BME280;34310;51.904;4.256;2023-04-03T09:06:52;103355.31;;;14.97;60.46
48517;BME280;34310;51.904;4.256;2023-04-03T09:09:39;103353.78;;;14.99;60.43
48517;BME280;34310;51.904;4.256;2023-04-03T09:17:38;103357.16;;;14.98;60.51
48517;BME280;34310;51.904;4.256;2023-04-03T09:23:19;103358.06;;;14.99;60.47
48517;BME280;34310;51.904;4.256;2023-04-03T09:25:48;103356.22;;;14.98;60.47
48517;BME280;34310;51.904;4.256;2023-04-03T09:28:17;103358.06;;;14.99;60.49
48517;BME280;34310;51.904;4.256;2023-04-03T09:30:44;103350.13;;;14.97;60.51
48517;BME280;34310;51.904;4.256;2023-04-03T09:33:12;103352.72;;;14.97;60.62
48517;BME280;34310;51.904;4.256;2023-04-03T09:35:41;103351.03;;;14.98;60.58
48517;BME280;34310;51.904;4.256;2023-04-03T09:38:18;103355.47;;;14.99;60.55
48517;BME280;34310;51.904;4.256;2023-04-03T09:41:05;103346.59;;;14.97;60.52
48517;BME280;34310;51.904;4.256;2023-04-03T09:43:37;103348.56;;;14.99;60.53
48517;BME280;34310;51.904;4.256;2023-04-03T09:46:32;103344.13;;;14.98;60.59
48517;BME280;34310;51.904;4.256;2023-04-03T09:49:02;103339.72;;;14.97;60.58
48517;BME280;34310;51.904;4.256;2023-04-03T09:51:36;103335.56;;;14.99;60.58
48517;BME280;34310;51.904;4.256;2023-04-03T09:54:32;103324.25;;;14.99;60.69
48517;BME280;34310;51.904;4.256;2023-04-03T09:57:06;103326.84;;;14.99;60.70
48517;BME280;34310;51.904;4.256;2023-04-03T09:59:34;103326.84;;;14.99;60.68
48517;BME280;34310;51.904;4.256;2023-04-03T10:02:30;103327.75;;;14.99;60.78
48517;BME280;34310;51.904;4.256;2023-04-03T10:04:59;103319.03;;;14.99;60.73
48517;BME280;34310;51.904;4.256;2023-04-03T10:07:37;103321.63;;;14.99;60.68
48517;BME280;34310;51.904;4.256;2023-04-03T10:10:21;103320.88;;;15.00;60.77
48517;BME280;34310;51.904;4.256;2023-04-03T10:13:15;103314.75;;;14.99;60.79
48517;BME280;34310;51.904;4.256;2023-04-03T10:16:07;103318.25;;;15.00;60.73
48517;BME280;34310;51.904;4.256;2023-04-03T10:18:51;103312.16;;;14.99;60.67
48517;BME280;34310;51.904;4.256;2023-04-03T10:24:21;103313.97;;;15.00;60.76
48517;BME280;34310;51.904;4.256;2023-04-03T10:32:16;103308.91;;;15.02;60.84
48517;BME280;34310;51.904;4.256;2023-04-03T10:34:58;103309.81;;;15.02;60.78
48517;BME280;34310;51.904;4.256;2023-04-03T10:37:41;103300.34;;;15.03;60.79
48517;BME280;34310;51.904;4.256;2023-04-03T10:40:22;103303.84;;;15.03;60.93
48517;BME280;34310;51.904;4.256;2023-04-03T10:45:32;103298.81;;;15.05;60.83
48517;BME280;34310;51.904;4.256;2023-04-03T10:50:54;103296.22;;;15.05;60.96
48517;BME280;34310;51.904;4.256;2023-04-03T10:53:34;103299.88;;;15.07;60.93
48517;BME280;34310;51.904;4.256;2023-04-03T10:58:45;103293.91;;;15.08;60.83
48517;BME280;34310;51.904;4.256;2023-04-03T11:01:31;103294.03;;;15.09;60.85
48517;BME280;34310;51.904;4.256;2023-04-03T11:04:01;103284.53;;;15.10;60.97
48517;BME280;34310;51.904;4.256;2023-04-03T11:06:51;103288.97;;;15.11;60.83
48517;BME280;34310;51.904;4.256;2023-04-03T11:09:29;103282.06;;;15.11;60.92
48517;BME280;34310;51.904;4.256;2023-04-03T11:12:06;103280.38;;;15.12;60.94
48517;BME280;34310;51.904;4.256;2023-04-03T11:14:38;103283.13;;;15.13;60.92
48517;BME280;34310;51.904;4.256;2023-04-03T11:17:11;103273.50;;;15.12;61.04
48517;BME280;34310;51.904;4.256;2023-04-03T11:20:06;103281.56;;;15.15;60.99
48517;BME280;34310;51.904;4.256;2023-04-03T11:22:42;103277.28;;;15.16;61.03
48517;BME280;34310;51.904;4.256;2023-04-03T11:28:03;103260.13;;;15.18;60.88
48517;BME280;34310;51.904;4.256;2023-04-03T11:35:53;103250.75;;;15.20;60.97
48517;BME280;34310;51.904;4.256;2023-04-03T11:38:31;103256.09;;;15.22;61.00
48517;BME280;34310;51.904;4.256;2023-04-03T11:41:05;103254.41;;;15.22;60.95
48517;BME280;34310;51.904;4.256;2023-04-03T11:43:39;103262.34;;;15.24;61.04
48517;BME280;34310;51.904;4.256;2023-04-03T11:46:07;103257.16;;;15.24;60.96
48517;BME280;34310;51.904;4.256;2023-04-03T11:54:36;103242.72;;;15.27;61.08
48517;BME280;34310;51.904;4.256;2023-04-03T11:57:43;103240.38;;;15.30;60.97
48517;BME280;34310;51.904;4.256;2023-04-03T12:13:42;103216.63;;;15.36;61.03
48517;BME280;34310;51.904;4.256;2023-04-03T12:41:27;103196.22;;;15.50;61.03
48517;BME280;34310;51.904;4.256;2023-04-03T12:46:49;103208.75;;;15.55;61.03
48517;BME280;34310;51.904;4.256;2023-04-03T12:49:24;103198.31;;;15.55;61.16
48517;BME280;34310;51.904;4.256;2023-04-03T12:51:53;103195.72;;;15.55;60.98
48517;BME280;34310;51.904;4.256;2023-04-03T12:54:32;103188.16;;;15.58;61.04
48517;BME280;34310;51.904;4.256;2023-04-03T12:59:39;103194.47;;;15.60;61.11
48517;BME280;34310;51.904;4.256;2023-04-03T13:04:56;103189.69;;;15.64;61.06
48517;BME280;34310;51.904;4.256;2023-04-03T13:07:34;103181.88;;;15.64;61.13
48517;BME280;34310;51.904;4.256;2023-04-03T13:12:44;103184.75;;;15.67;61.05
48517;BME280;34310;51.904;4.256;2023-04-03T13:17:50;103182.53;;;15.72;60.95
48517;BME280;34310;51.904;4.256;2023-04-03T13:20:26;103178.25;;;15.72;60.92
48517;BME280;34310;51.904;4.256;2023-04-03T13:23:07;103178.38;;;15.74;60.96
48517;BME280;34310;51.904;4.256;2023-04-03T13:25:40;103184.63;;;15.76;61.07
48517;BME280;34310;51.904;4.256;2023-04-03T13:28:09;103181.25;;;15.77;61.12
48517;BME280;34310;51.904;4.256;2023-04-03T13:30:41;103178.75;;;15.78;60.97
48517;BME280;34310;51.904;4.256;2023-04-03T13:33:26;103180.72;;;15.81;60.98
48517;BME280;34310;51.904;4.256;2023-04-03T13:36:16;103179.94;;;15.82;60.99
48517;BME280;34310;51.904;4.256;2023-04-03T13:38:45;103187.88;;;15.84;60.84
48517;BME280;34310;51.904;4.256;2023-04-03T13:41:46;103182.81;;;15.85;61.03
48517;BME280;34310;51.904;4.256;2023-04-03T13:47:01;103177.84;;;15.88;60.91
48517;BME280;34310;51.904;4.256;2023-04-03T13:49:46;103174.47;;;15.89;61.03
48517;BME280;34310;51.904;4.256;2023-04-03T13:54:58;103172.16;;;15.92;61.00
48517;BME280;34310;51.904;4.256;2023-04-03T13:57:27;103160.81;;;15.92;60.92
48517;BME280;34310;51.904;4.256;2023-04-03T13:59:55;103154.06;;;15.94;60.91
48517;BME280;34310;51.904;4.256;2023-04-03T14:02:30;103145.59;;;15.96;60.93
48517;BME280;34310;51.904;4.256;2023-04-03T14:05:00;103150.94;;;15.98;60.87
48517;BME280;34310;51.904;4.256;2023-04-03T14:07:30;103146.75;;;16.00;60.79
48517;BME280;34310;51.904;4.256;2023-04-03T14:09:58;103140.75;;;16.01;60.99
48517;BME280;34310;51.904;4.256;2023-04-03T14:12:38;103134.75;;;16.02;60.86
48517;BME280;34310;51.904;4.256;2023-04-03T14:15:23;103137.63;;;16.05;60.78
48517;BME280;34310;51.904;4.256;2023-04-03T14:17:51;103133.47;;;16.07;60.90
48517;BME280;34310;51.904;4.256;2023-04-03T14:20:22;103122.25;;;16.08;60.76
48517;BME280;34310;51.904;4.256;2023-04-03T14:22:50;103117.94;;;16.08;60.79
48517;BME280;34310;51.904;4.256;2023-04-03T14:25:19;103109.47;;;16.11;60.73
48517;BME280;34310;51.904;4.256;2023-04-03T14:27:48;103110.38;;;16.11;60.69
48517;BME280;34310;51.904;4.256;2023-04-03T14:30:26;103108.81;;;16.14;60.90
48517;BME280;34310;51.904;4.256;2023-04-03T14:32:54;103104.66;;;16.16;60.68
48517;BME280;34310;51.904;4.256;2023-04-03T14:35:22;103105.69;;;16.18;60.74
48517;BME280;34310;51.904;4.256;2023-04-03T14:37:49;103104.91;;;16.19;60.78
48517;BME280;34310;51.904;4.256;2023-04-03T14:40:35;103104.16;;;16.20;60.62
48517;BME280;34310;51.904;4.256;2023-04-03T14:43:05;103101.66;;;16.21;60.62
48517;BME280;34310;51.904;4.256;2023-04-03T14:45:32;103101.81;;;16.23;60.71
48517;BME280;34310;51.904;4.256;2023-04-03T14:48:00;103099.31;;;16.24;60.70
48517;BME280;34310;51.904;4.256;2023-04-03T14:50:27;103096.84;;;16.26;60.71
48517;BME280;34310;51.904;4.256;2023-04-03T14:52:57;103098.66;;;16.27;60.53
48517;BME280;34310;51.904;4.256;2023-04-03T14:55:26;103099.56;;;16.27;60.73
48517;BME280;34310;51.904;4.256;2023-04-03T14:57:54;103093.69;;;16.30;60.60